Terminal Aerodrome Forecast
Issued by NWS Des Moines, IA

Home | Current Version | Previous Version | Text Only | Print | Product List | Glossary On
Versions: 1 2 3 4 5 6 7 8 9 10 11 12 13
000
FTUS43 KDMX 240520
TAFALO
TAF
KALO 240520Z 2406/2506 16007KT P6SM SKC
     FM241600 20011KT P6SM FEW240
     FM241900 24013G21KT P6SM FEW250
     FM242200 30012G17KT P6SM SCT110
     FM250200 31011KT P6SM SKC=

USA.gov is the U.S. government's official web portal to all federal, state and local government web resources and services.